createdAt,value
2023-01-12T16:02:47.937Z,0.30
2023-01-12T16:05:16.415Z,0.30
2023-01-12T16:07:46.851Z,0.30
2023-01-12T16:10:17.886Z,0.30
2023-01-12T16:12:47.881Z,0.30
2023-01-12T16:15:17.176Z,0.30
2023-01-12T16:17:46.848Z,0.30
2023-01-12T16:20:16.208Z,0.30
2023-01-12T16:22:44.124Z,0.40
2023-01-12T16:25:12.391Z,0.40
2023-01-12T16:27:40.374Z,0.40
2023-01-12T16:30:11.157Z,0.30
2023-01-12T16:32:39.111Z,0.40
2023-01-12T16:35:08.494Z,0.30
2023-01-12T16:37:36.372Z,0.40
2023-01-12T16:40:04.155Z,0.30
2023-01-12T16:42:31.845Z,0.40
2023-01-12T16:44:59.616Z,0.40
2023-01-12T16:47:27.359Z,0.40
2023-01-12T16:49:55.090Z,0.40
2023-01-12T16:52:24.311Z,0.40
2023-01-12T16:54:52.069Z,0.50
2023-01-12T16:57:20.209Z,0.50
2023-01-12T16:59:49.618Z,0.40
2023-01-12T17:02:18.891Z,0.50
2023-01-12T17:04:49.112Z,0.40
2023-01-12T17:07:17.022Z,0.50
2023-01-12T17:09:46.271Z,0.50
2023-01-12T17:12:14.160Z,0.60
2023-01-12T17:14:42.083Z,0.60
2023-01-12T17:17:10.634Z,0.50
2023-01-12T17:19:39.706Z,0.40
2023-01-12T17:22:08.187Z,0.50
2023-01-12T17:24:36.641Z,0.50
2023-01-12T17:27:06.054Z,0.50
2023-01-12T17:29:33.991Z,0.40
2023-01-12T17:32:06.834Z,0.40
2023-01-12T17:34:36.853Z,0.40
2023-01-12T17:37:08.310Z,0.53
2023-01-12T17:39:36.752Z,0.50
2023-01-12T17:42:24.066Z,0.50
2023-01-12T17:44:51.835Z,0.50
2023-01-12T17:47:19.577Z,0.60
2023-01-12T17:49:48.676Z,0.50
2023-01-12T17:52:16.769Z,0.60
2023-01-12T17:54:44.500Z,0.50
2023-01-12T17:57:13.715Z,0.60
2023-01-12T17:59:41.678Z,0.60
2023-01-12T18:02:11.394Z,0.60
2023-01-12T18:04:39.237Z,0.60
2023-01-12T18:07:06.894Z,0.50
2023-01-12T18:09:34.678Z,0.50
2023-01-12T18:12:03.919Z,0.50
2023-01-12T18:14:33.396Z,0.50
2023-01-12T18:17:01.206Z,0.50
2023-01-12T18:19:30.082Z,0.50
2023-01-12T18:21:57.891Z,0.60
2023-01-12T18:24:25.566Z,0.60
2023-01-12T18:26:53.267Z,0.60
2023-01-12T18:29:21.028Z,0.60
2023-01-12T18:31:50.213Z,0.70
2023-01-12T18:34:18.684Z,0.60
2023-01-12T18:36:46.760Z,0.70
2023-01-12T18:39:16.365Z,0.70
2023-01-12T18:42:01.427Z,0.60
2023-01-12T18:44:31.035Z,0.60
2023-01-12T18:47:18.600Z,0.70
2023-01-12T18:49:47.265Z,0.80
2023-01-12T18:52:34.929Z,0.70
2023-01-12T18:55:02.821Z,0.60
2023-01-12T18:57:31.503Z,0.70
2023-01-12T19:00:00.654Z,0.50
2023-01-12T19:02:30.029Z,0.70
2023-01-12T19:05:19.446Z,0.70
2023-01-12T19:08:05.369Z,0.60
2023-01-12T19:10:34.122Z,0.50
2023-01-12T19:13:19.550Z,0.40
2023-01-12T19:16:05.049Z,1.17
2023-01-12T19:18:34.882Z,0.80
2023-01-12T19:21:23.704Z,0.80
2023-01-12T19:24:17.117Z,0.60
2023-01-12T19:27:02.031Z,0.60
2023-01-12T19:29:29.816Z,0.40
2023-01-12T19:31:57.585Z,0.40
2023-01-12T19:34:27.157Z,0.50
2023-01-12T19:36:55.502Z,0.40
2023-01-12T19:39:34.496Z,0.30
2023-01-12T19:42:19.687Z,0.30
2023-01-12T19:44:47.675Z,0.30
2023-01-12T19:47:15.664Z,0.20
2023-01-12T19:49:45.119Z,0.20
2023-01-12T19:52:16.104Z,0.20
2023-01-12T19:54:43.987Z,0.10
2023-01-12T19:57:11.984Z,0.20
2023-01-12T19:59:40.028Z,0.20
2023-01-12T20:02:08.554Z,0.20
2023-01-12T20:04:36.533Z,0.20
2023-01-12T20:07:05.945Z,0.20
2023-01-12T20:09:33.816Z,0.20
2023-01-12T20:12:01.652Z,0.20
2023-01-12T20:14:30.764Z,0.20
2023-01-12T20:16:58.587Z,0.20
2023-01-12T20:19:26.391Z,0.30
2023-01-12T20:21:54.560Z,0.30
2023-01-12T20:24:23.761Z,0.30
2023-01-12T20:26:51.651Z,0.20
2023-01-12T20:29:19.745Z,0.30
2023-01-12T20:31:50.090Z,0.30
2023-01-12T20:34:17.966Z,0.30
2023-01-12T20:36:47.735Z,0.20
2023-01-12T20:39:15.831Z,0.30
2023-01-12T20:41:44.958Z,0.30
2023-01-12T20:44:16.115Z,0.30
2023-01-12T20:46:44.197Z,0.20
2023-01-12T20:49:12.108Z,0.30
2023-01-12T20:51:39.868Z,0.30
2023-01-12T20:54:08.048Z,0.20
2023-01-12T20:56:38.580Z,0.30
2023-01-12T20:59:07.679Z,0.20
2023-01-12T21:01:35.563Z,0.30
2023-01-12T21:04:04.383Z,0.30
2023-01-12T21:06:32.236Z,0.20
2023-01-12T21:08:59.950Z,0.30
2023-01-12T21:11:27.834Z,0.30
2023-01-12T21:13:57.183Z,0.30
2023-01-12T21:16:26.361Z,0.20
2023-01-12T21:18:54.254Z,0.20
2023-01-12T21:21:21.987Z,0.20
2023-01-12T21:23:49.796Z,0.20
2023-01-12T21:26:17.587Z,0.23
2023-01-12T21:28:45.396Z,0.30
2023-01-12T21:31:13.673Z,0.30
2023-01-12T21:33:42.885Z,0.30
2023-01-12T21:36:11.965Z,0.40
2023-01-12T21:38:39.808Z,0.40
2023-01-12T21:41:07.572Z,0.40
2023-01-12T21:43:35.654Z,0.40
2023-01-12T21:46:07.228Z,0.30
2023-01-12T21:48:34.961Z,0.30
2023-01-12T21:51:04.465Z,0.30
2023-01-12T21:53:32.166Z,0.30
2023-01-12T21:56:00.693Z,0.30
2023-01-12T21:58:29.082Z,0.30
2023-01-12T22:00:57.260Z,1.13
2023-01-12T22:03:25.357Z,0.30
2023-01-12T22:05:53.116Z,0.43
2023-01-12T22:08:22.723Z,0.30
